Terminal Aerodrome Forecast
Issued by NWS

Home | Current Version | Previous Version | Text Only | Print | Product List | Glossary On
Versions: 1 2 3 4 5 6 7 8 9 10 11 12 13 14
000
FTUS45 KPIH 212300
TAFSUN
TAF
KSUN 212320Z 2200/2224 15008KT P6SM -SHRA VCTS SCT070 BKN110CB
     FM220300 32007KT P6SM -SHRA VCTS SCT030 BKN060CB
     FM221900 18008KT P6SM VCSH SCT050 BKN100
      AMD LTD TO CLD VIS AND WIND 2205/2213=

USA.gov is the U.S. government's official web portal to all federal, state and local government web resources and services.